Time;durP1;ratioP1;P1;durP2;ratioP2;P2;SDS_P1;SDS_P2;PMS_P1;PMS_P2;Temp;Humidity;BMP_temperature;BMP_pressure;BME280_temperature;BME280_humidity;BME280_pressure;Samples;Min_cycle;Max_cycle;Signal;HPM_P1;HPM_P2
2022/07/02 00:01:36;;;;;;;19.10;17.50;;;;;;;17.20;97.42;98269.13;105478;1284;24252;-91
2022/07/02 00:04:06;;;;;;;18.90;17.30;;;;;;;17.14;97.22;98266.73;105536;1284;23082;-89
2022/07/02 00:06:37;;;;;;;20.90;18.90;;;;;;;17.13;97.75;98268.47;106395;1284;24230;-88
2022/07/02 00:09:05;;;;;;;19.20;17.40;;;;;;;17.08;96.70;98269.61;106870;1285;22637;-89
2022/07/02 00:11:35;;;;;;;18.40;15.60;;;;;;;17.10;97.26;98266.64;105519;1287;22630;-89
2022/07/02 00:14:03;;;;;;;18.00;16.30;;;;;;;17.10;97.62;98265.77;105518;1284;22560;-90
2022/07/02 00:16:32;;;;;;;17.80;16.20;;;;;;;17.08;96.93;98248.67;105303;1284;22697;-89
2022/07/02 00:19:00;;;;;;;16.80;15.30;;;;;;;17.06;98.24;98238.52;105365;1284;22619;-88
2022/07/02 00:21:28;;;;;;;18.50;16.60;;;;;;;17.01;98.13;98220.52;105250;1286;22564;-90
2022/07/02 00:23:56;;;;;;;18.40;16.80;;;;;;;16.96;97.63;98211.63;105365;1284;25521;-90
2022/07/02 00:26:46;;;;;;;17.20;15.70;;;;;;;16.96;96.73;98210.46;105404;1284;22567;-90
2022/07/02 00:29:21;;;;;;;18.80;16.80;;;;;;;16.99;96.30;98218.33;105311;1287;22577;-90
2022/07/02 00:31:51;;;;;;;18.00;16.30;;;;;;;17.02;95.94;98223.80;105445;1284;25348;-89
2022/07/02 00:34:24;;;;;;;17.10;15.50;;;;;;;17.05;95.64;98222.77;105510;1284;22576;-89
2022/07/02 00:36:52;;;;;;;17.30;15.80;;;;;;;17.12;95.62;98220.04;105613;1284;26798;-90
2022/07/02 00:39:19;;;;;;;18.10;16.40;;;;;;;17.18;95.20;98218.03;107050;1284;22484;-89
2022/07/02 00:41:49;;;;;;;16.10;14.50;;;;;;;17.23;95.05;98220.46;106577;1284;24040;-88
2022/07/02 00:44:22;;;;;;;17.90;16.20;;;;;;;17.29;95.61;98229.52;105601;1284;24280;-91
2022/07/02 00:46:50;;;;;;;19.30;15.30;;;;;;;17.30;95.70;98237.12;105435;1284;22663;-91
2022/07/02 00:49:20;;;;;;;21.30;17.60;;;;;;;17.30;95.95;98235.63;105463;1284;22593;-90
2022/07/02 00:51:48;;;;;;;18.00;16.30;;;;;;;17.27;96.13;98234.59;105423;1287;25581;-90
2022/07/02 00:54:16;;;;;;;18.50;16.70;;;;;;;17.22;96.44;98228.26;105611;1285;22495;-90
2022/07/02 00:56:46;;;;;;;18.50;16.80;;;;;;;17.19;96.51;98235.45;105688;1284;22734;-93
2022/07/02 00:59:14;;;;;;;18.20;16.60;;;;;;;17.18;96.26;98241.65;105606;1284;25381;-92
2022/07/02 01:01:42;;;;;;;23.60;18.60;;;;;;;17.16;96.41;98254.52;105464;1284;22590;-92
2022/07/02 01:04:13;;;;;;;22.00;19.40;;;;;;;17.15;97.11;98264.13;105488;1284;26720;-90
2022/07/02 01:06:42;;;;;;;23.50;21.00;;;;;;;17.10;97.15;98276.26;105577;1283;22668;-92
2022/07/02 01:12:00;;;;;;;25.00;22.90;;;;;;;16.99;97.75;98284.11;105590;1284;22563;-91
2022/07/02 01:14:29;;;;;;;26.10;23.70;;;;;;;16.99;98.43;98285.71;106863;1284;23498;-90
2022/07/02 01:16:56;;;;;;;24.90;22.80;;;;;;;16.95;98.51;98285.13;107337;1284;22684;-91
2022/07/02 01:19:24;;;;;;;26.70;24.00;;;;;;;16.92;98.59;98285.89;106468;1285;25434;-91
2022/07/02 01:22:12;;;;;;;26.30;23.70;;;;;;;16.91;98.55;98291.66;105764;1284;23561;-90
2022/07/02 01:24:42;;;;;;;23.40;21.40;;;;;;;16.89;98.95;98286.55;105730;1284;25870;-92
2022/07/02 01:27:11;;;;;;;22.60;20.50;;;;;;;16.83;98.94;98282.82;105532;1284;22633;-89
2022/07/02 01:29:39;;;;;;;22.60;20.50;;;;;;;16.82;99.25;98287.91;105972;1284;24290;-88
2022/07/02 01:32:08;;;;;;;21.70;19.90;;;;;;;16.80;99.54;98283.02;105908;1287;22635;-90
2022/07/02 01:34:48;;;;;;;23.10;20.80;;;;;;;16.76;99.93;98271.89;105962;1284;22669;-92
2022/07/02 01:37:19;;;;;;;20.80;18.90;;;;;;;16.67;99.76;98262.98;105591;1287;22721;-94
2022/07/02 01:39:48;;;;;;;19.90;18.00;;;;;;;16.66;99.48;98260.90;105842;1284;25428;-92
2022/07/02 01:42:16;;;;;;;22.00;20.10;;;;;;;16.66;99.58;98263.27;106137;1284;22615;-93
2022/07/02 01:44:46;;;;;;;21.80;19.60;;;;;;;16.66;99.74;98263.16;105911;1283;22604;-91
2022/07/02 01:47:14;;;;;;;22.10;20.20;;;;;;;16.66;99.35;98252.59;105771;1284;22662;-91
2022/07/02 01:49:42;;;;;;;21.80;20.00;;;;;;;16.67;99.38;98250.92;105608;1287;22623;-92
2022/07/02 01:52:10;;;;;;;23.30;21.20;;;;;;;16.66;99.57;98254.52;105857;1284;24246;-92
2022/07/02 01:54:38;;;;;;;24.70;22.60;;;;;;;16.64;99.55;98254.52;105462;1284;214878;-91
2022/07/02 01:57:07;;;;;;;29.20;26.60;;;;;;;16.64;99.89;98265.25;105610;1284;22732;-92
2022/07/02 01:59:35;;;;;;;28.00;25.60;;;;;;;16.63;99.43;98272.63;105601;1284;22582;-90
2022/07/02 02:02:04;;;;;;;29.70;27.10;;;;;;;16.67;99.60;98276.09;105691;1284;22573;-91
2022/07/02 02:04:33;;;;;;;29.50;26.80;;;;;;;16.67;99.84;98276.41;105604;1284;22482;-93
2022/07/02 02:07:03;;;;;;;31.20;28.30;;;;;;;16.65;99.77;98275.98;105619;1284;25407;-92
2022/07/02 02:09:31;;;;;;;32.50;29.70;;;;;;;16.64;99.65;98279.65;105593;1284;23004;-92
2022/07/02 02:11:59;;;;;;;32.50;29.90;;;;;;;16.65;99.45;98283.71;105380;1287;24216;-90
2022/07/02 02:14:27;;;;;;;31.00;28.50;;;;;;;16.66;99.95;98284.08;105695;1284;22572;-91
2022/07/02 02:16:55;;;;;;;29.80;27.30;;;;;;;16.59;99.73;98294.30;105526;1284;25360;-90
2022/07/02 02:19:23;;;;;;;29.50;26.90;;;;;;;16.54;99.57;98295.34;105676;1284;25272;-93
2022/07/02 02:21:51;;;;;;;26.40;24.10;;;;;;;16.58;99.93;98304.28;106797;1284;22549;-90
2022/07/02 02:24:19;;;;;;;23.60;21.70;;;;;;;16.53;99.85;98308.27;107051;1284;24049;-92
2022/07/02 02:26:47;;;;;;;21.10;19.30;;;;;;;16.50;99.81;98317.80;106904;1284;22598;-92
2022/07/02 02:29:15;;;;;;;19.60;18.00;;;;;;;16.43;99.64;98324.05;106105;1284;22549;-92
2022/07/02 02:31:43;;;;;;;19.70;17.70;;;;;;;16.40;99.63;98316.70;105953;1284;23014;-91
2022/07/02 02:34:11;;;;;;;19.20;17.70;;;;;;;16.38;99.31;98313.33;106131;1284;23720;-90
2022/07/02 02:36:39;;;;;;;18.00;16.20;;;;;;;16.35;99.32;98320.10;105805;1284;22681;-90
2022/07/02 02:39:07;;;;;;;16.40;15.10;;;;;;;16.30;99.09;98322.20;105642;1284;22717;-92
2022/07/02 02:41:35;;;;;;;15.00;13.80;;;;;;;16.32;99.02;98325.80;106173;1284;24250;-92
2022/07/02 02:44:03;;;;;;;16.60;14.90;;;;;;;16.32;99.42;98322.29;106063;1284;25887;-90
2022/07/02 02:46:31;;;;;;;15.90;14.70;;;;;;;16.27;99.52;98329.30;105816;1284;23387;-90
2022/07/02 02:48:59;;;;;;;16.50;14.90;;;;;;;16.23;99.80;98334.89;106735;1284;22508;-90
2022/07/02 02:51:27;;;;;;;17.40;16.00;;;;;;;16.13;99.96;98337.82;107665;1284;22567;-92
2022/07/02 02:53:55;;;;;;;18.30;16.60;;;;;;;16.08;100.00;98336.42;107024;1284;22789;-93
2022/07/02 02:56:23;;;;;;;18.10;16.60;;;;;;;16.02;100.00;98340.13;106200;1284;22761;-93
2022/07/02 02:58:50;;;;;;;18.40;16.80;;;;;;;15.95;100.00;98332.79;106397;1284;26057;-90
2022/07/02 03:01:18;;;;;;;17.70;16.00;;;;;;;15.88;100.00;98333.80;106317;1284;22669;-91
2022/07/02 03:03:46;;;;;;;16.60;15.30;;;;;;;15.81;100.00;98340.48;106312;1284;22659;-91
2022/07/02 03:06:15;;;;;;;17.40;15.90;;;;;;;15.75;100.00;98349.33;105988;1284;22886;-92
2022/07/02 03:08:42;;;;;;;18.50;16.90;;;;;;;15.71;100.00;98351.23;105869;1284;22557;-89
2022/07/02 03:11:10;;;;;;;17.80;16.30;;;;;;;15.69;100.00;98352.39;105838;1284;23941;-88
2022/07/02 03:13:38;;;;;;;16.10;14.60;;;;;;;15.61;100.00;98354.25;105595;1287;22630;-91
2022/07/02 03:16:07;;;;;;;18.40;16.80;;;;;;;15.57;100.00;98358.02;105904;1284;24102;-91
2022/07/02 03:18:35;;;;;;;18.80;17.00;;;;;;;15.55;100.00;98367.51;106222;1284;23238;-93
2022/07/02 03:21:03;;;;;;;17.20;15.60;;;;;;;15.55;100.00;98366.39;105791;1284;22541;-90
2022/07/02 03:23:31;;;;;;;17.20;15.60;;;;;;;15.54;100.00;98373.52;106080;1284;25367;-91
2022/07/02 03:25:59;;;;;;;17.90;16.20;;;;;;;15.52;100.00;98362.56;106014;1284;24358;-93
2022/07/02 03:28:27;;;;;;;16.40;15.00;;;;;;;15.51;100.00;98369.02;106723;1284;22559;-90
2022/07/02 03:30:56;;;;;;;16.40;15.00;;;;;;;15.53;100.00;98368.79;107821;1284;25288;-92
2022/07/02 03:33:25;;;;;;;18.60;16.80;;;;;;;15.56;100.00;98362.79;107569;1284;24174;-90
2022/07/02 03:35:52;;;;;;;16.70;15.30;;;;;;;15.54;100.00;98359.75;106377;1284;22658;-90
2022/07/02 03:38:20;;;;;;;16.60;15.20;;;;;;;15.54;100.00;98361.95;106047;1284;22549;-91
2022/07/02 03:40:48;;;;;;;18.40;16.80;;;;;;;15.57;100.00;98364.31;105918;1284;25734;-93
2022/07/02 03:43:16;;;;;;;18.60;17.00;;;;;;;15.61;100.00;98369.30;106067;1284;24389;-94
2022/07/02 03:45:44;;;;;;;17.40;15.80;;;;;;;15.59;100.00;98375.34;105958;1285;25566;-92
2022/07/02 03:48:12;;;;;;;16.70;15.20;;;;;;;15.61;100.00;98387.87;106245;1284;25220;-92
2022/07/02 03:50:42;;;;;;;17.60;16.10;;;;;;;15.62;100.00;98388.55;106131;1284;22724;-92
2022/07/02 03:53:11;;;;;;;18.50;16.80;;;;;;;15.63;100.00;98388.42;106118;1284;25297;-92
2022/07/02 03:55:38;;;;;;;18.80;16.80;;;;;;;15.62;100.00;98395.98;105825;1284;25510;-92
2022/07/02 03:58:06;;;;;;;23.60;16.90;;;;;;;15.61;100.00;98397.94;106092;1284;24316;-93
2022/07/02 04:00:34;;;;;;;17.70;16.10;;;;;;;15.61;100.00;98401.61;106145;1284;22663;-93
2022/07/02 04:03:02;;;;;;;17.90;16.30;;;;;;;15.63;100.00;98411.84;106157;1284;25537;-91
2022/07/02 04:05:30;;;;;;;17.20;15.80;;;;;;;15.64;100.00;98405.77;105913;1284;24373;-91
2022/07/02 04:07:58;;;;;;;17.90;16.40;;;;;;;15.68;100.00;98404.19;106217;1284;22632;-91
2022/07/02 04:10:26;;;;;;;16.90;15.00;;;;;;;15.70;100.00;98399.30;106467;1284;23204;-93
2022/07/02 04:12:54;;;;;;;16.90;15.40;;;;;;;15.72;100.00;98393.71;106710;1284;22549;-93
2022/07/02 04:15:22;;;;;;;17.40;15.70;;;;;;;15.72;100.00;98391.55;106532;1284;22568;-92
2022/07/02 04:17:50;;;;;;;15.10;13.70;;;;;;;15.73;100.00;98398.92;106252;1284;22878;-92
2022/07/02 04:20:18;;;;;;;17.40;15.70;;;;;;;15.75;100.00;98399.08;106249;1284;25373;-93
2022/07/02 04:22:46;;;;;;;15.50;14.20;;;;;;;15.73;100.00;98404.42;106383;1284;22615;-91
2022/07/02 04:25:14;;;;;;;15.90;14.40;;;;;;;15.73;100.00;98402.41;106142;1284;22848;-93
2022/07/02 04:27:41;;;;;;;16.40;14.70;;;;;;;15.72;100.00;98403.21;106195;1284;22636;-92
2022/07/02 04:30:10;;;;;;;15.50;14.20;;;;;;;15.70;100.00;98408.16;106161;1284;22611;-92
2022/07/02 04:32:38;;;;;;;15.90;14.50;;;;;;;15.71;100.00;98408.06;106597;1284;23510;-91
2022/07/02 04:35:06;;;;;;;14.90;13.30;;;;;;;15.73;100.00;98410.02;106224;1284;24243;-92
2022/07/02 04:37:34;;;;;;;14.60;13.40;;;;;;;15.74;100.00;98407.71;106096;1284;23495;-93
2022/07/02 04:40:03;;;;;;;18.10;14.30;;;;;;;15.75;100.00;98417.62;106271;1284;24314;-93
2022/07/02 04:42:31;;;;;;;15.00;13.70;;;;;;;15.76;100.00;98419.83;106599;1284;22566;-94
2022/07/02 04:44:59;;;;;;;15.00;13.60;;;;;;;15.79;100.00;98424.56;106578;1284;22742;-92
2022/07/02 04:47:27;;;;;;;15.90;14.00;;;;;;;15.83;100.00;98431.59;106283;1284;22942;-92
2022/07/02 04:49:55;;;;;;;15.20;13.60;;;;;;;15.85;100.00;98433.13;106147;1284;22539;-91
2022/07/02 04:52:23;;;;;;;15.50;13.30;;;;;;;15.83;100.00;98432.19;106353;1284;24184;-90
2022/07/02 04:54:51;;;;;;;15.50;14.10;;;;;;;15.82;100.00;98431.69;106480;1284;25404;-91
2022/07/02 04:57:19;;;;;;;15.30;13.50;;;;;;;15.82;100.00;98434.79;106369;1284;22647;-91
2022/07/02 04:59:47;;;;;;;14.80;13.40;;;;;;;15.80;100.00;98431.69;107776;1284;25860;-89
2022/07/02 05:02:15;;;;;;;14.70;13.40;;;;;;;15.83;100.00;98436.83;108033;1284;23026;-93
2022/07/02 05:04:43;;;;;;;16.20;13.50;;;;;;;15.80;100.00;98436.10;107291;1284;22566;-93
2022/07/02 05:07:11;;;;;;;13.40;12.20;;;;;;;15.82;100.00;98441.30;106517;1284;22647;-92
2022/07/02 05:09:39;;;;;;;14.50;13.10;;;;;;;15.86;100.00;98443.98;106293;1284;22740;-90
2022/07/02 05:12:08;;;;;;;14.40;13.00;;;;;;;15.86;100.00;98443.20;106230;1284;24271;-92
2022/07/02 05:14:36;;;;;;;12.80;11.60;;;;;;;15.89;100.00;98442.02;105700;1284;22752;-91
2022/07/02 05:17:04;;;;;;;13.60;11.90;;;;;;;15.88;100.00;98441.03;105852;1284;22694;-92
2022/07/02 05:19:33;;;;;;;14.30;12.90;;;;;;;15.87;100.00;98448.59;105887;1284;24235;-92
2022/07/02 05:22:01;;;;;;;14.70;13.30;;;;;;;15.88;100.00;98458.90;105963;1281;23186;-90
2022/07/02 05:24:29;;;;;;;14.30;13.00;;;;;;;15.91;100.00;98463.59;105959;1284;22871;-93
2022/07/02 05:26:57;;;;;;;13.20;12.00;;;;;;;15.94;100.00;98463.88;105798;1284;25994;-91
2022/07/02 05:29:25;;;;;;;13.70;12.50;;;;;;;15.92;99.96;98471.56;105679;1284;24436;-92
2022/07/02 05:31:52;;;;;;;15.80;12.10;;;;;;;15.88;100.00;98476.73;105751;1284;22495;-90
2022/07/02 05:34:21;;;;;;;14.40;13.00;;;;;;;15.85;100.00;98479.86;105992;1284;25431;-93
2022/07/02 05:36:49;;;;;;;15.40;14.00;;;;;;;15.83;100.00;98483.98;105787;1284;23980;-91
2022/07/02 05:39:16;;;;;;;15.30;13.50;;;;;;;15.84;100.00;98496.13;105704;1284;22502;-91
2022/07/02 05:41:44;;;;;;;14.40;12.90;;;;;;;15.83;100.00;98502.39;105913;1284;25562;-92
2022/07/02 05:44:12;;;;;;;13.40;12.20;;;;;;;15.85;100.00;98501.86;106326;1283;22852;-92
2022/07/02 05:46:40;;;;;;;13.60;12.30;;;;;;;15.89;100.00;98496.59;108151;1284;22947;-90
2022/07/02 05:49:08;;;;;;;14.60;12.60;;;;;;;15.83;100.00;98500.36;107393;1284;24335;-89
2022/07/02 05:51:36;;;;;;;12.90;11.70;;;;;;;15.81;100.00;98503.39;106501;1284;22610;-90
2022/07/02 05:54:04;;;;;;;12.30;11.10;;;;;;;15.80;100.00;98503.33;105800;1284;22557;-92
2022/07/02 05:56:32;;;;;;;12.80;11.60;;;;;;;15.77;100.00;98504.98;105675;1284;22554;-92
2022/07/02 05:59:00;;;;;;;12.30;11.20;;;;;;;15.78;100.00;98506.39;105790;1284;24457;-93
2022/07/02 06:01:28;;;;;;;15.90;12.70;;;;;;;15.80;99.99;98499.52;105803;1284;22566;-90
2022/07/02 06:03:55;;;;;;;14.00;12.70;;;;;;;15.80;100.00;98496.64;105766;1284;22574;-90
2022/07/02 06:09:10;;;;;;;12.40;11.40;;;;;;;15.83;100.00;98499.97;105561;1284;22550;-92
2022/07/02 06:11:38;;;;;;;14.00;12.70;;;;;;;15.86;99.99;98508.09;105508;1284;22578;-91
2022/07/02 06:14:07;;;;;;;13.60;12.30;;;;;;;15.90;100.00;98507.64;105627;1284;22543;-91
2022/07/02 06:16:39;;;;;;;14.20;12.80;;;;;;;15.92;100.00;98509.22;105757;1283;22756;-90
2022/07/02 06:19:07;;;;;;;14.30;13.00;;;;;;;15.95;99.94;98518.27;105742;1284;22670;-93
2022/07/02 06:21:35;;;;;;;15.30;14.00;;;;;;;15.96;99.92;98515.61;105529;1284;23924;-91
2022/07/02 06:24:03;;;;;;;15.50;14.00;;;;;;;15.98;99.95;98525.09;105790;1284;22566;-91
2022/07/02 06:26:31;;;;;;;16.30;14.70;;;;;;;16.00;99.96;98533.11;105901;1284;22604;-92
2022/07/02 06:28:59;;;;;;;15.20;13.90;;;;;;;15.96;99.84;98543.81;105752;1285;22654;-91
2022/07/02 06:31:27;;;;;;;15.60;14.00;;;;;;;16.01;99.92;98543.08;106210;1287;24422;-92
2022/07/02 06:33:55;;;;;;;15.80;14.40;;;;;;;16.06;99.85;98546.03;106112;1285;22711;-92
2022/07/02 06:36:24;;;;;;;16.00;14.30;;;;;;;16.05;99.81;98549.42;105788;1285;22751;-92
2022/07/02 06:38:52;;;;;;;15.00;13.40;;;;;;;16.05;99.60;98552.30;105911;1284;24022;-92
2022/07/02 06:44:07;;;;;;;12.70;11.60;;;;;;;16.05;99.38;98555.14;105872;1284;22579;-94
2022/07/02 06:46:36;;;;;;;17.40;11.90;;;;;;;16.10;99.18;98560.52;105584;1285;22581;-90
2022/07/02 06:49:04;;;;;;;13.80;12.10;;;;;;;16.13;99.33;98568.59;105768;1284;22704;-92
2022/07/02 06:51:32;;;;;;;11.60;10.50;;;;;;;16.16;99.07;98573.39;105867;1284;24325;-91
2022/07/02 06:54:00;;;;;;;12.20;10.90;;;;;;;16.16;98.83;98580.23;106951;1284;22622;-90
2022/07/02 06:56:32;;;;;;;12.00;10.90;;;;;;;16.16;98.71;98587.13;106752;1284;22577;-92
2022/07/02 06:59:00;;;;;;;11.70;10.50;;;;;;;16.16;98.37;98591.33;105942;1284;23420;-92
2022/07/02 07:01:27;;;;;;;12.00;10.80;;;;;;;16.16;98.57;98597.31;106086;1284;22687;-91
2022/07/02 07:03:55;;;;;;;11.70;10.50;;;;;;;16.19;98.11;98606.70;105878;1284;22538;-91
2022/07/02 07:06:25;;;;;;;11.20;10.00;;;;;;;16.18;98.25;98612.01;105486;1285;22847;-90
2022/07/02 07:08:53;;;;;;;12.00;9.70;;;;;;;16.16;98.15;98608.41;106121;1284;25235;-89
2022/07/02 07:11:22;;;;;;;11.10;10.10;;;;;;;16.17;98.34;98608.70;107870;1284;22688;-87
2022/07/02 07:13:50;;;;;;;11.90;10.20;;;;;;;16.22;98.21;98613.66;106807;1284;22741;-90
2022/07/02 07:16:18;;;;;;;11.30;10.30;;;;;;;16.25;98.14;98617.13;105909;1284;25449;-92
2022/07/02 07:18:58;;;;;;;10.50;9.60;;;;;;;16.24;97.66;98615.23;105356;1285;24219;-90
2022/07/02 07:21:26;;;;;;;10.40;9.40;;;;;;;16.25;97.44;98613.10;105426;1286;24338;-91
2022/07/02 07:23:54;;;;;;;11.20;10.00;;;;;;;16.24;96.98;98613.29;105838;1284;24282;-92
2022/07/02 07:26:22;;;;;;;11.50;10.10;;;;;;;16.20;96.99;98616.06;106089;1284;22739;-91
2022/07/02 07:28:50;;;;;;;11.50;10.40;;;;;;;16.23;97.07;98618.47;105863;1284;22582;-90
2022/07/02 07:31:20;;;;;;;11.20;9.90;;;;;;;16.24;96.97;98619.75;105977;1284;23368;-90
2022/07/02 07:33:49;;;;;;;10.50;9.50;;;;;;;16.27;97.00;98623.91;106014;1284;24107;-91
2022/07/02 07:36:20;;;;;;;10.40;9.40;;;;;;;16.31;96.89;98624.49;105864;1284;22631;-94
2022/07/02 07:38:49;;;;;;;10.70;9.70;;;;;;;16.38;96.77;98628.38;105926;1284;22722;-91
2022/07/02 07:41:19;;;;;;;10.10;9.10;;;;;;;16.45;96.64;98627.55;106540;1284;23982;-93
2022/07/02 07:43:48;;;;;;;10.00;9.10;;;;;;;16.49;96.05;98624.53;106121;1284;22739;-93
2022/07/02 07:46:16;;;;;;;9.70;8.50;;;;;;;16.52;96.07;98623.41;105905;1284;24207;-92
2022/07/02 07:48:44;;;;;;;10.70;9.70;;;;;;;16.53;95.95;98622.13;105833;1284;24270;-92
2022/07/02 07:51:14;;;;;;;9.40;8.50;;;;;;;16.52;95.70;98623.89;105962;1284;25354;-90
2022/07/02 07:53:44;;;;;;;9.80;8.90;;;;;;;16.47;95.40;98626.20;105995;1284;22815;-91
2022/07/02 07:56:21;;;;;;;9.90;9.00;;;;;;;16.44;95.27;98624.15;106020;1284;23941;-90
2022/07/02 07:58:49;;;;;;;10.00;9.00;;;;;;;16.42;95.24;98627.58;105824;1284;22563;-90
2022/07/02 08:01:17;;;;;;;10.00;8.90;;;;;;;16.42;95.02;98630.48;105774;1284;22557;-91
2022/07/02 08:03:45;;;;;;;9.30;8.30;;;;;;;16.43;95.37;98626.32;105590;1285;25327;-91
2022/07/02 08:06:13;;;;;;;8.60;7.90;;;;;;;16.46;95.38;98630.35;105400;1286;22565;-91
2022/07/02 08:08:41;;;;;;;11.30;8.70;;;;;;;16.47;94.76;98631.73;105545;1284;22616;-91
2022/07/02 08:11:09;;;;;;;9.60;8.50;;;;;;;16.45;95.04;98629.56;105912;1284;22869;-93
2022/07/02 08:13:37;;;;;;;9.70;8.70;;;;;;;16.47;95.07;98631.41;105718;1284;24397;-91
2022/07/02 08:16:05;;;;;;;11.10;10.00;;;;;;;16.46;94.69;98636.34;105389;1284;22632;-92
2022/07/02 08:18:33;;;;;;;9.90;9.00;;;;;;;16.48;95.02;98635.35;105861;1284;25430;-91
2022/07/02 08:21:01;;;;;;;10.40;9.30;;;;;;;16.47;94.49;98639.29;105873;1284;25961;-92
2022/07/02 08:23:29;;;;;;;9.70;8.30;;;;;;;16.48;94.63;98639.95;105878;1284;22646;-90
2022/07/02 08:25:58;;;;;;;11.00;10.00;;;;;;;16.50;94.58;98643.98;105732;1284;22753;-94
2022/07/02 08:28:26;;;;;;;9.50;8.50;;;;;;;16.54;94.58;98647.13;106050;1284;22736;-93
2022/07/02 08:30:54;;;;;;;9.50;8.70;;;;;;;16.59;94.61;98650.56;106467;1284;22684;-92
2022/07/02 08:33:22;;;;;;;10.30;9.30;;;;;;;16.65;94.35;98653.82;105993;1284;23097;-93
2022/07/02 08:35:50;;;;;;;11.50;10.30;;;;;;;16.62;93.66;98649.83;105939;1284;22590;-91
2022/07/02 08:38:18;;;;;;;11.50;9.10;;;;;;;16.58;93.31;98652.77;105782;1284;25678;-92
2022/07/02 08:40:47;;;;;;;9.40;8.60;;;;;;;16.54;93.22;98656.38;105390;1284;22819;-90
2022/07/02 08:43:17;;;;;;;10.20;8.40;;;;;;;16.51;93.35;98659.45;105720;1284;22572;-92
2022/07/02 08:45:46;;;;;;;12.00;9.60;;;;;;;16.52;93.33;98664.70;105845;1283;25249;-92
2022/07/02 08:48:14;;;;;;;13.50;9.30;;;;;;;16.51;93.03;98665.88;105684;1284;22563;-93
2022/07/02 08:50:43;;;;;;;8.90;8.00;;;;;;;16.49;92.64;98672.86;105696;1284;22576;-92
2022/07/02 08:53:11;;;;;;;12.10;8.90;;;;;;;16.46;93.02;98677.02;105700;1284;22582;-92
2022/07/02 08:55:41;;;;;;;10.70;9.70;;;;;;;16.49;93.14;98673.50;105674;1284;22556;-92
2022/07/02 08:58:11;;;;;;;9.80;8.80;;;;;;;16.46;93.26;98679.16;105695;1284;22580;-91
2022/07/02 09:00:40;;;;;;;10.20;8.50;;;;;;;16.40;93.41;98675.02;105248;1284;24272;-93
2022/07/02 09:03:09;;;;;;;14.40;8.40;;;;;;;16.48;93.26;98683.01;105559;1284;24091;-91
2022/07/02 09:05:42;;;;;;;8.80;8.00;;;;;;;16.50;93.21;98677.75;105295;1287;22603;-92
2022/07/02 09:08:16;;;;;;;9.30;8.50;;;;;;;16.51;93.00;98684.00;105626;1285;22568;-91
2022/07/02 09:10:46;;;;;;;11.20;9.30;;;;;;;16.45;92.74;98685.20;105708;1284;23148;-91
2022/07/02 09:13:16;;;;;;;9.60;8.60;;;;;;;16.38;92.98;98686.73;105624;1284;22560;-92
2022/07/02 09:15:45;;;;;;;9.90;9.00;;;;;;;16.35;93.09;98685.28;105236;1286;22568;-91
2022/07/02 09:18:13;;;;;;;9.80;8.80;;;;;;;16.34;93.22;98691.61;105635;1284;25239;-90
2022/07/02 09:20:41;;;;;;;9.60;8.70;;;;;;;16.36;93.10;98688.63;105720;1284;24329;-90
2022/07/02 09:23:19;;;;;;;11.20;10.10;;;;;;;16.34;92.89;98687.73;105362;1285;26049;-92
2022/07/02 09:25:49;;;;;;;10.70;9.60;;;;;;;16.29;92.99;98688.02;105366;1284;24281;-91
2022/07/02 09:28:18;;;;;;;13.10;9.50;;;;;;;16.26;93.14;98685.23;105446;1285;23442;-90
2022/07/02 09:30:47;;;;;;;10.80;9.80;;;;;;;16.26;93.20;98682.23;106716;1284;22567;-87
2022/07/02 09:33:35;;;;;;;11.10;10.00;;;;;;;16.30;93.31;98688.33;108321;1284;23025;-87
2022/07/02 09:36:12;;;;;;;16.40;11.10;;;;;;;16.37;93.44;98692.42;106834;1284;22556;-91
2022/07/02 09:38:49;;;;;;;13.80;12.20;;;;;;;16.39;93.34;98691.52;106198;1284;23949;-92
2022/07/02 09:41:21;;;;;;;13.90;12.50;;;;;;;16.35;93.38;98689.64;105773;1284;23902;-89
2022/07/02 09:43:59;;;;;;;13.50;12.30;;;;;;;16.32;93.20;98690.20;106188;1284;22554;-91
2022/07/02 09:46:29;;;;;;;14.10;12.40;;;;;;;16.29;93.25;98688.98;105439;1285;22598;-93
2022/07/02 09:49:08;;;;;;;13.10;11.70;;;;;;;16.33;93.28;98692.48;105756;1284;22639;-88
2022/07/02 09:51:50;;;;;;;13.40;12.20;;;;;;;16.39;93.28;98694.26;105623;1284;22499;-88
2022/07/02 09:54:23;;;;;;;13.50;12.10;;;;;;;16.48;93.30;98693.55;105784;1284;24194;-91
2022/07/02 09:56:58;;;;;;;14.20;12.90;;;;;;;16.54;93.15;98696.26;105766;1284;25372;-88
2022/07/02 09:59:26;;;;;;;14.10;12.90;;;;;;;16.61;93.17;98696.88;106317;1284;24283;-91
2022/07/02 10:01:54;;;;;;;13.90;11.30;;;;;;;16.65;93.08;98695.83;105627;1284;22707;-91
2022/07/02 10:04:31;;;;;;;11.40;10.30;;;;;;;16.75;93.07;98697.77;105684;1284;26005;-93
2022/07/02 10:07:00;;;;;;;13.20;11.30;;;;;;;16.85;92.28;98693.18;105690;1284;24234;-93
2022/07/02 10:09:28;;;;;;;13.70;12.50;;;;;;;16.88;91.78;98700.92;105274;1284;25438;-90
2022/07/02 10:11:57;;;;;;;17.10;13.40;;;;;;;16.90;90.88;98698.36;105806;1284;22553;-93
2022/07/02 10:14:29;;;;;;;13.50;11.20;;;;;;;16.95;90.99;98695.47;105586;1284;22568;-92
2022/07/02 10:16:59;;;;;;;13.00;10.50;;;;;;;17.06;90.69;98693.04;105639;1284;22564;-92
2022/07/02 10:19:28;;;;;;;11.20;9.90;;;;;;;17.21;89.87;98691.60;105657;1284;22850;-92
2022/07/02 10:21:59;;;;;;;10.30;9.20;;;;;;;17.30;89.58;98693.58;105662;1284;22766;-91
2022/07/02 10:24:27;;;;;;;10.90;9.80;;;;;;;17.40;90.02;98694.95;105662;1285;22590;-92
2022/07/02 10:26:58;;;;;;;7.70;7.00;;;;;;;17.46;88.94;98706.84;105623;1284;23358;-91
2022/07/02 10:29:28;;;;;;;7.40;6.70;;;;;;;17.46;89.31;98706.13;105626;1284;24255;-91
2022/07/02 10:32:07;;;;;;;6.00;5.40;;;;;;;17.53;88.57;98708.44;105704;1284;22563;-92
2022/07/02 10:35:00;;;;;;;6.20;4.90;;;;;;;17.55;88.12;98706.73;105958;1284;25226;-90
2022/07/02 10:37:28;;;;;;;8.10;4.30;;;;;;;17.55;87.53;98709.35;105706;1284;25313;-93
2022/07/02 10:40:03;;;;;;;6.70;5.40;;;;;;;17.49;87.25;98708.67;105641;1284;22700;-92
2022/07/02 10:42:44;;;;;;;6.10;5.30;;;;;;;17.46;87.43;98711.93;105705;1284;22493;-91
2022/07/02 10:45:14;;;;;;;8.20;6.70;;;;;;;17.46;87.13;98712.02;105295;1286;25488;-91
2022/07/02 10:48:15;;;;;;;9.20;5.50;;;;;;;17.48;87.41;98706.45;105793;1284;24345;-92
2022/07/02 10:50:47;;;;;;;9.40;5.40;;;;;;;17.52;87.17;98710.00;104741;1294;23500;-93
2022/07/02 10:53:21;;;;;;;5.10;4.50;;;;;;;17.53;86.75;98710.84;104547;1294;26614;-88
2022/07/02 10:55:55;;;;;;;5.10;4.60;;;;;;;17.50;86.62;98714.05;104641;1294;25520;-92
2022/07/02 10:58:26;;;;;;;6.20;5.00;;;;;;;17.47;86.20;98714.23;104565;1294;22927;-92
2022/07/02 11:00:54;;;;;;;4.90;4.30;;;;;;;17.44;86.47;98717.84;104558;1293;25388;-92
2022/07/02 11:03:24;;;;;;;5.30;4.30;;;;;;;17.43;85.86;98717.97;104479;1293;25243;-93
2022/07/02 11:06:06;;;;;;;7.00;4.80;;;;;;;17.36;85.76;98717.27;104567;1293;23178;-93
2022/07/02 11:08:48;;;;;;;6.80;6.20;;;;;;;17.33;86.19;98717.94;104583;1294;24457;-93
2022/07/02 11:11:21;;;;;;;7.00;5.50;;;;;;;17.36;85.69;98714.84;104632;1294;22581;-92
2022/07/02 11:14:16;;;;;;;6.40;5.70;;;;;;;17.30;85.67;98715.64;104580;1293;24532;-92
2022/07/02 11:16:50;;;;;;;5.90;4.80;;;;;;;17.39;85.96;98716.41;104543;1294;22652;-92
2022/07/02 11:19:18;;;;;;;7.00;4.40;;;;;;;17.47;85.72;98719.31;104520;1294;22609;-91
2022/07/02 11:21:49;;;;;;;5.10;4.20;;;;;;;17.52;85.41;98724.58;104536;1294;26934;-92
2022/07/02 11:24:24;;;;;;;6.80;4.60;;;;;;;17.54;85.53;98722.02;104550;1294;22569;-93
2022/07/02 11:26:53;;;;;;;4.50;3.80;;;;;;;17.61;85.61;98723.02;105025;1284;24223;-90
2022/07/02 11:29:21;;;;;;;3.90;3.50;;;;;;;17.70;85.80;98727.04;105657;1284;26024;-90